sensor_id;sensor_type;location;lat;lon;timestamp;P1;durP1;ratioP1;P2;durP2;ratioP2
44214;SDS011;29884;47.450;19.124;2022-12-18T00:00:44;39.72;;;17.17;;
44214;SDS011;29884;47.450;19.124;2022-12-18T00:03:12;38.05;;;16.33;;
44214;SDS011;29884;47.450;19.124;2022-12-18T00:05:45;34.35;;;15.93;;
44214;SDS011;29884;47.450;19.124;2022-12-18T00:08:12;36.13;;;16.40;;
44214;SDS011;29884;47.450;19.124;2022-12-18T00:10:38;33.03;;;16.05;;
44214;SDS011;29884;47.450;19.124;2022-12-18T00:13:03;36.67;;;16.33;;
44214;SDS011;29884;47.450;19.124;2022-12-18T00:15:29;39.45;;;16.60;;
44214;SDS011;29884;47.450;19.124;2022-12-18T00:17:55;35.10;;;15.10;;
44214;SDS011;29884;47.450;19.124;2022-12-18T00:20:20;38.60;;;16.05;;
44214;SDS011;29884;47.450;19.124;2022-12-18T00:22:50;36.47;;;15.73;;
44214;SDS011;29884;47.450;19.124;2022-12-18T00:25:17;37.60;;;16.13;;
44214;SDS011;29884;47.450;19.124;2022-12-18T00:27:42;38.63;;;16.35;;
44214;SDS011;29884;47.450;19.124;2022-12-18T00:30:08;35.95;;;15.88;;
44214;SDS011;29884;47.450;19.124;2022-12-18T00:32:35;35.88;;;15.50;;
44214;SDS011;29884;47.450;19.124;2022-12-18T00:35:00;36.78;;;16.00;;
44214;SDS011;29884;47.450;19.124;2022-12-18T00:37:26;35.05;;;16.02;;
44214;SDS011;29884;47.450;19.124;2022-12-18T00:39:52;36.78;;;15.70;;
44214;SDS011;29884;47.450;19.124;2022-12-18T00:42:17;34.83;;;14.98;;
44214;SDS011;29884;47.450;19.124;2022-12-18T00:45:02;38.08;;;15.18;;
44214;SDS011;29884;47.450;19.124;2022-12-18T00:47:28;36.38;;;15.55;;
44214;SDS011;29884;47.450;19.124;2022-12-18T00:49:54;37.10;;;16.40;;
44214;SDS011;29884;47.450;19.124;2022-12-18T00:52:19;36.28;;;15.98;;
44214;SDS011;29884;47.450;19.124;2022-12-18T00:54:45;36.75;;;14.45;;
44214;SDS011;29884;47.450;19.124;2022-12-18T00:57:10;38.78;;;16.42;;
44214;SDS011;29884;47.450;19.124;2022-12-18T00:59:36;37.08;;;16.20;;
44214;SDS011;29884;47.450;19.124;2022-12-18T01:02:02;36.58;;;16.08;;
44214;SDS011;29884;47.450;19.124;2022-12-18T01:04:28;34.08;;;15.98;;
44214;SDS011;29884;47.450;19.124;2022-12-18T01:06:56;37.25;;;16.05;;
44214;SDS011;29884;47.450;19.124;2022-12-18T01:09:22;37.08;;;14.93;;
44214;SDS011;29884;47.450;19.124;2022-12-18T01:11:47;35.28;;;15.25;;
44214;SDS011;29884;47.450;19.124;2022-12-18T01:14:13;40.25;;;16.27;;
44214;SDS011;29884;47.450;19.124;2022-12-18T01:16:39;38.72;;;15.50;;
44214;SDS011;29884;47.450;19.124;2022-12-18T01:19:04;35.45;;;16.08;;
44214;SDS011;29884;47.450;19.124;2022-12-18T01:21:30;40.25;;;16.60;;
44214;SDS011;29884;47.450;19.124;2022-12-18T01:23:56;37.30;;;15.50;;
44214;SDS011;29884;47.450;19.124;2022-12-18T01:26:22;39.42;;;16.23;;
44214;SDS011;29884;47.450;19.124;2022-12-18T01:28:49;37.67;;;16.40;;
44214;SDS011;29884;47.450;19.124;2022-12-18T01:31:22;39.25;;;16.35;;
44214;SDS011;29884;47.450;19.124;2022-12-18T01:33:50;36.17;;;16.45;;
44214;SDS011;29884;47.450;19.124;2022-12-18T01:38:50;36.38;;;16.30;;
44214;SDS011;29884;47.450;19.124;2022-12-18T01:41:17;40.20;;;17.15;;
44214;SDS011;29884;47.450;19.124;2022-12-18T01:43:46;37.53;;;16.23;;
44214;SDS011;29884;47.450;19.124;2022-12-18T01:46:14;40.22;;;16.83;;
44214;SDS011;29884;47.450;19.124;2022-12-18T01:48:41;38.03;;;17.05;;
44214;SDS011;29884;47.450;19.124;2022-12-18T01:51:10;39.65;;;17.02;;
44214;SDS011;29884;47.450;19.124;2022-12-18T01:53:36;40.22;;;17.40;;
44214;SDS011;29884;47.450;19.124;2022-12-18T01:56:04;43.90;;;16.92;;
44214;SDS011;29884;47.450;19.124;2022-12-18T01:58:32;39.78;;;18.08;;
44214;SDS011;29884;47.450;19.124;2022-12-18T02:01:04;42.67;;;17.38;;
44214;SDS011;29884;47.450;19.124;2022-12-18T02:03:30;43.30;;;18.25;;
44214;SDS011;29884;47.450;19.124;2022-12-18T02:06:06;47.58;;;18.77;;
44214;SDS011;29884;47.450;19.124;2022-12-18T02:08:39;50.90;;;21.15;;
44214;SDS011;29884;47.450;19.124;2022-12-18T02:11:37;43.30;;;19.20;;
44214;SDS011;29884;47.450;19.124;2022-12-18T02:17:06;52.35;;;21.77;;
44214;SDS011;29884;47.450;19.124;2022-12-18T02:19:44;52.58;;;23.00;;
44214;SDS011;29884;47.450;19.124;2022-12-18T02:28:06;53.55;;;24.17;;
44214;SDS011;29884;47.450;19.124;2022-12-18T02:30:36;54.58;;;23.10;;
44214;SDS011;29884;47.450;19.124;2022-12-18T02:33:04;57.67;;;23.30;;
44214;SDS011;29884;47.450;19.124;2022-12-18T02:35:33;61.30;;;25.52;;
44214;SDS011;29884;47.450;19.124;2022-12-18T02:38:01;59.92;;;26.58;;
44214;SDS011;29884;47.450;19.124;2022-12-18T02:40:28;59.63;;;25.30;;
44214;SDS011;29884;47.450;19.124;2022-12-18T02:42:55;47.10;;;20.45;;
44214;SDS011;29884;47.450;19.124;2022-12-18T02:45:26;52.88;;;24.35;;
44214;SDS011;29884;47.450;19.124;2022-12-18T02:47:52;45.05;;;21.52;;
44214;SDS011;29884;47.450;19.124;2022-12-18T02:56:20;40.67;;;18.88;;
44214;SDS011;29884;47.450;19.124;2022-12-18T02:59:01;43.40;;;18.60;;
44214;SDS011;29884;47.450;19.124;2022-12-18T03:04:49;41.95;;;17.15;;
44214;SDS011;29884;47.450;19.124;2022-12-18T03:07:33;46.05;;;17.00;;
44214;SDS011;29884;47.450;19.124;2022-12-18T03:10:03;37.78;;;16.50;;
44214;SDS011;29884;47.450;19.124;2022-12-18T03:12:32;43.05;;;18.45;;
44214;SDS011;29884;47.450;19.124;2022-12-18T03:15:03;41.30;;;17.50;;
44214;SDS011;29884;47.450;19.124;2022-12-18T03:17:31;42.63;;;17.45;;
44214;SDS011;29884;47.450;19.124;2022-12-18T03:19:59;41.70;;;18.17;;
44214;SDS011;29884;47.450;19.124;2022-12-18T03:22:30;43.42;;;19.27;;
44214;SDS011;29884;47.450;19.124;2022-12-18T03:24:59;43.45;;;18.25;;
44214;SDS011;29884;47.450;19.124;2022-12-18T03:27:28;43.78;;;18.25;;
44214;SDS011;29884;47.450;19.124;2022-12-18T03:30:05;49.22;;;18.23;;
44214;SDS011;29884;47.450;19.124;2022-12-18T03:32:43;41.40;;;17.30;;
44214;SDS011;29884;47.450;19.124;2022-12-18T03:35:14;40.90;;;16.95;;
44214;SDS011;29884;47.450;19.124;2022-12-18T03:37:44;40.15;;;17.25;;
44214;SDS011;29884;47.450;19.124;2022-12-18T03:40:10;38.85;;;17.05;;
44214;SDS011;29884;47.450;19.124;2022-12-18T03:42:48;41.45;;;16.83;;
44214;SDS011;29884;47.450;19.124;2022-12-18T03:47:59;41.35;;;16.85;;
44214;SDS011;29884;47.450;19.124;2022-12-18T03:53:20;40.60;;;17.23;;
44214;SDS011;29884;47.450;19.124;2022-12-18T03:55:47;46.20;;;18.05;;
44214;SDS011;29884;47.450;19.124;2022-12-18T03:58:15;41.80;;;17.98;;
44214;SDS011;29884;47.450;19.124;2022-12-18T04:00:44;40.97;;;17.25;;
44214;SDS011;29884;47.450;19.124;2022-12-18T04:03:13;43.88;;;17.77;;
44214;SDS011;29884;47.450;19.124;2022-12-18T04:05:39;39.50;;;17.20;;
44214;SDS011;29884;47.450;19.124;2022-12-18T04:08:08;39.72;;;17.70;;
44214;SDS011;29884;47.450;19.124;2022-12-18T04:10:34;44.78;;;18.17;;
44214;SDS011;29884;47.450;19.124;2022-12-18T04:13:00;40.05;;;16.88;;
44214;SDS011;29884;47.450;19.124;2022-12-18T04:15:25;35.78;;;16.45;;
44214;SDS011;29884;47.450;19.124;2022-12-18T04:17:51;41.95;;;17.48;;
44214;SDS011;29884;47.450;19.124;2022-12-18T04:20:17;36.13;;;16.35;;
44214;SDS011;29884;47.450;19.124;2022-12-18T04:22:43;37.47;;;16.60;;
44214;SDS011;29884;47.450;19.124;2022-12-18T04:25:08;35.53;;;15.68;;
44214;SDS011;29884;47.450;19.124;2022-12-18T04:27:37;40.15;;;16.83;;
44214;SDS011;29884;47.450;19.124;2022-12-18T04:30:02;39.17;;;15.88;;
44214;SDS011;29884;47.450;19.124;2022-12-18T04:32:28;40.10;;;15.88;;
44214;SDS011;29884;47.450;19.124;2022-12-18T04:34:54;37.47;;;15.32;;
44214;SDS011;29884;47.450;19.124;2022-12-18T04:37:20;34.38;;;15.70;;
44214;SDS011;29884;47.450;19.124;2022-12-18T04:39:46;37.38;;;15.98;;
44214;SDS011;29884;47.450;19.124;2022-12-18T04:42:12;38.03;;;16.17;;
44214;SDS011;29884;47.450;19.124;2022-12-18T04:44:37;34.83;;;15.48;;
44214;SDS011;29884;47.450;19.124;2022-12-18T04:47:03;38.85;;;16.70;;
44214;SDS011;29884;47.450;19.124;2022-12-18T04:49:29;39.22;;;15.77;;
44214;SDS011;29884;47.450;19.124;2022-12-18T04:51:54;43.03;;;17.05;;
44214;SDS011;29884;47.450;19.124;2022-12-18T04:54:20;37.55;;;16.35;;
44214;SDS011;29884;47.450;19.124;2022-12-18T04:56:46;39.58;;;15.80;;
44214;SDS011;29884;47.450;19.124;2022-12-18T04:59:11;40.15;;;16.80;;
44214;SDS011;29884;47.450;19.124;2022-12-18T05:01:37;40.50;;;16.70;;
44214;SDS011;29884;47.450;19.124;2022-12-18T05:04:03;40.00;;;15.98;;
44214;SDS011;29884;47.450;19.124;2022-12-18T05:06:29;37.17;;;15.95;;
44214;SDS011;29884;47.450;19.124;2022-12-18T05:08:54;40.58;;;16.10;;
44214;SDS011;29884;47.450;19.124;2022-12-18T05:11:20;46.40;;;16.77;;
44214;SDS011;29884;47.450;19.124;2022-12-18T05:13:46;40.65;;;16.98;;
44214;SDS011;29884;47.450;19.124;2022-12-18T05:16:12;40.08;;;16.45;;
44214;SDS011;29884;47.450;19.124;2022-12-18T05:18:39;36.90;;;15.80;;
44214;SDS011;29884;47.450;19.124;2022-12-18T05:21:05;40.28;;;17.10;;
44214;SDS011;29884;47.450;19.124;2022-12-18T05:23:31;38.83;;;16.73;;
44214;SDS011;29884;47.450;19.124;2022-12-18T05:26:00;42.13;;;15.88;;
44214;SDS011;29884;47.450;19.124;2022-12-18T05:28:28;37.17;;;15.77;;
44214;SDS011;29884;47.450;19.124;2022-12-18T05:30:55;35.25;;;15.63;;
44214;SDS011;29884;47.450;19.124;2022-12-18T05:33:23;37.83;;;16.60;;
44214;SDS011;29884;47.450;19.124;2022-12-18T05:35:54;41.80;;;17.38;;
44214;SDS011;29884;47.450;19.124;2022-12-18T05:38:22;36.17;;;15.77;;
44214;SDS011;29884;47.450;19.124;2022-12-18T05:40:49;35.95;;;15.77;;
44214;SDS011;29884;47.450;19.124;2022-12-18T05:43:16;40.22;;;17.02;;
44214;SDS011;29884;47.450;19.124;2022-12-18T05:45:42;36.58;;;15.90;;
44214;SDS011;29884;47.450;19.124;2022-12-18T05:48:08;41.95;;;16.42;;
44214;SDS011;29884;47.450;19.124;2022-12-18T05:50:37;37.65;;;16.48;;
44214;SDS011;29884;47.450;19.124;2022-12-18T05:53:04;37.42;;;16.20;;
44214;SDS011;29884;47.450;19.124;2022-12-18T05:55:34;37.42;;;16.05;;
44214;SDS011;29884;47.450;19.124;2022-12-18T05:58:00;38.45;;;16.00;;
44214;SDS011;29884;47.450;19.124;2022-12-18T06:00:27;37.35;;;15.88;;
44214;SDS011;29884;47.450;19.124;2022-12-18T06:02:52;39.67;;;16.27;;
44214;SDS011;29884;47.450;19.124;2022-12-18T06:05:18;42.97;;;16.63;;
44214;SDS011;29884;47.450;19.124;2022-12-18T06:07:44;42.47;;;19.10;;
44214;SDS011;29884;47.450;19.124;2022-12-18T06:10:09;40.00;;;17.92;;
44214;SDS011;29884;47.450;19.124;2022-12-18T06:12:35;39.33;;;17.23;;
44214;SDS011;29884;47.450;19.124;2022-12-18T06:15:01;40.53;;;17.00;;
44214;SDS011;29884;47.450;19.124;2022-12-18T06:17:28;38.88;;;16.55;;
44214;SDS011;29884;47.450;19.124;2022-12-18T06:19:54;43.47;;;17.00;;
44214;SDS011;29884;47.450;19.124;2022-12-18T06:22:20;35.95;;;16.98;;
44214;SDS011;29884;47.450;19.124;2022-12-18T06:24:46;38.30;;;16.80;;
44214;SDS011;29884;47.450;19.124;2022-12-18T06:27:11;39.65;;;16.10;;
44214;SDS011;29884;47.450;19.124;2022-12-18T06:29:37;39.80;;;16.45;;
44214;SDS011;29884;47.450;19.124;2022-12-18T06:32:03;41.90;;;16.88;;
44214;SDS011;29884;47.450;19.124;2022-12-18T06:34:29;41.47;;;16.52;;
44214;SDS011;29884;47.450;19.124;2022-12-18T06:36:57;39.70;;;16.67;;
44214;SDS011;29884;47.450;19.124;2022-12-18T06:39:23;43.53;;;18.17;;
44214;SDS011;29884;47.450;19.124;2022-12-18T06:41:49;42.45;;;17.20;;
44214;SDS011;29884;47.450;19.124;2022-12-18T06:44:15;39.95;;;18.17;;
44214;SDS011;29884;47.450;19.124;2022-12-18T06:46:41;45.30;;;19.02;;
44214;SDS011;29884;47.450;19.124;2022-12-18T06:49:06;44.28;;;18.25;;
44214;SDS011;29884;47.450;19.124;2022-12-18T06:51:34;44.45;;;18.27;;
44214;SDS011;29884;47.450;19.124;2022-12-18T06:53:59;41.97;;;18.08;;
44214;SDS011;29884;47.450;19.124;2022-12-18T06:56:25;41.00;;;18.88;;
44214;SDS011;29884;47.450;19.124;2022-12-18T06:58:51;41.28;;;17.17;;
44214;SDS011;29884;47.450;19.124;2022-12-18T07:01:16;86.80;;;30.90;;
44214;SDS011;29884;47.450;19.124;2022-12-18T07:03:42;51.03;;;20.95;;
44214;SDS011;29884;47.450;19.124;2022-12-18T07:06:15;45.28;;;19.85;;
44214;SDS011;29884;47.450;19.124;2022-12-18T07:08:43;44.63;;;19.42;;
44214;SDS011;29884;47.450;19.124;2022-12-18T07:11:09;41.70;;;18.48;;
44214;SDS011;29884;47.450;19.124;2022-12-18T07:13:35;44.40;;;17.67;;
44214;SDS011;29884;47.450;19.124;2022-12-18T07:16:04;47.00;;;18.77;;
44214;SDS011;29884;47.450;19.124;2022-12-18T07:18:31;47.25;;;19.00;;
44214;SDS011;29884;47.450;19.124;2022-12-18T07:20:57;38.92;;;17.77;;
44214;SDS011;29884;47.450;19.124;2022-12-18T07:23:23;46.75;;;18.10;;
44214;SDS011;29884;47.450;19.124;2022-12-18T07:25:49;46.20;;;18.65;;
44214;SDS011;29884;47.450;19.124;2022-12-18T07:28:14;40.10;;;17.45;;
44214;SDS011;29884;47.450;19.124;2022-12-18T07:30:40;51.55;;;20.35;;
44214;SDS011;29884;47.450;19.124;2022-12-18T07:33:06;41.85;;;18.75;;
44214;SDS011;29884;47.450;19.124;2022-12-18T07:35:32;41.05;;;17.02;;
44214;SDS011;29884;47.450;19.124;2022-12-18T07:38:02;41.63;;;18.95;;
44214;SDS011;29884;47.450;19.124;2022-12-18T07:40:28;41.17;;;17.83;;
44214;SDS011;29884;47.450;19.124;2022-12-18T07:42:53;40.53;;;17.98;;
44214;SDS011;29884;47.450;19.124;2022-12-18T07:45:19;43.83;;;17.90;;
44214;SDS011;29884;47.450;19.124;2022-12-18T07:47:45;45.00;;;18.58;;
44214;SDS011;29884;47.450;19.124;2022-12-18T07:50:10;50.35;;;20.08;;
44214;SDS011;29884;47.450;19.124;2022-12-18T07:52:36;43.47;;;19.23;;
44214;SDS011;29884;47.450;19.124;2022-12-18T07:55:02;43.25;;;18.85;;
44214;SDS011;29884;47.450;19.124;2022-12-18T07:57:28;38.72;;;18.27;;
44214;SDS011;29884;47.450;19.124;2022-12-18T07:59:54;45.30;;;19.63;;
44214;SDS011;29884;47.450;19.124;2022-12-18T08:02:19;46.47;;;19.17;;
44214;SDS011;29884;47.450;19.124;2022-12-18T08:04:45;46.03;;;19.92;;
44214;SDS011;29884;47.450;19.124;2022-12-18T08:07:11;44.70;;;19.70;;
44214;SDS011;29884;47.450;19.124;2022-12-18T08:09:37;44.92;;;19.00;;
44214;SDS011;29884;47.450;19.124;2022-12-18T08:12:03;47.25;;;20.50;;
44214;SDS011;29884;47.450;19.124;2022-12-18T08:14:29;45.88;;;20.13;;
44214;SDS011;29884;47.450;19.124;2022-12-18T08:16:55;43.90;;;19.92;;
44214;SDS011;29884;47.450;19.124;2022-12-18T08:19:20;64.72;;;28.67;;
44214;SDS011;29884;47.450;19.124;2022-12-18T08:21:46;52.72;;;23.33;;
44214;SDS011;29884;47.450;19.124;2022-12-18T08:24:12;53.22;;;20.50;;
44214;SDS011;29884;47.450;19.124;2022-12-18T08:26:37;46.25;;;19.48;;
44214;SDS011;29884;47.450;19.124;2022-12-18T08:29:03;49.55;;;20.20;;
44214;SDS011;29884;47.450;19.124;2022-12-18T08:31:29;48.60;;;19.92;;
44214;SDS011;29884;47.450;19.124;2022-12-18T08:33:56;43.65;;;19.27;;
44214;SDS011;29884;47.450;19.124;2022-12-18T08:36:22;45.45;;;19.23;;
44214;SDS011;29884;47.450;19.124;2022-12-18T08:38:49;44.33;;;19.85;;
44214;SDS011;29884;47.450;19.124;2022-12-18T08:41:16;43.88;;;18.92;;
44214;SDS011;29884;47.450;19.124;2022-12-18T08:43:43;44.75;;;19.92;;
44214;SDS011;29884;47.450;19.124;2022-12-18T08:46:31;44.05;;;19.00;;
44214;SDS011;29884;47.450;19.124;2022-12-18T08:48:59;50.47;;;20.85;;
44214;SDS011;29884;47.450;19.124;2022-12-18T08:51:25;46.75;;;20.42;;
44214;SDS011;29884;47.450;19.124;2022-12-18T08:53:50;45.53;;;20.00;;
44214;SDS011;29884;47.450;19.124;2022-12-18T08:56:16;48.17;;;20.20;;
44214;SDS011;29884;47.450;19.124;2022-12-18T08:58:42;42.78;;;20.58;;
44214;SDS011;29884;47.450;19.124;2022-12-18T09:01:08;47.75;;;20.75;;
44214;SDS011;29884;47.450;19.124;2022-12-18T09:03:35;46.63;;;19.80;;
44214;SDS011;29884;47.450;19.124;2022-12-18T09:06:00;48.55;;;20.77;;
44214;SDS011;29884;47.450;19.124;2022-12-18T09:08:27;51.95;;;20.88;;
44214;SDS011;29884;47.450;19.124;2022-12-18T09:10:53;45.13;;;19.65;;
44214;SDS011;29884;47.450;19.124;2022-12-18T09:13:19;47.78;;;20.92;;
44214;SDS011;29884;47.450;19.124;2022-12-18T09:15:49;46.80;;;21.55;;
44214;SDS011;29884;47.450;19.124;2022-12-18T09:18:17;44.60;;;20.30;;
44214;SDS011;29884;47.450;19.124;2022-12-18T09:20:44;42.78;;;19.38;;
44214;SDS011;29884;47.450;19.124;2022-12-18T09:23:10;44.80;;;20.27;;
44214;SDS011;29884;47.450;19.124;2022-12-18T09:25:39;46.53;;;20.10;;
44214;SDS011;29884;47.450;19.124;2022-12-18T09:28:06;47.83;;;20.88;;
44214;SDS011;29884;47.450;19.124;2022-12-18T09:30:40;43.90;;;20.40;;
44214;SDS011;29884;47.450;19.124;2022-12-18T09:33:08;44.00;;;19.65;;
44214;SDS011;29884;47.450;19.124;2022-12-18T09:35:41;50.13;;;21.63;;
44214;SDS011;29884;47.450;19.124;2022-12-18T09:38:08;49.28;;;20.90;;
44214;SDS011;29884;47.450;19.124;2022-12-18T09:40:39;50.40;;;21.88;;
44214;SDS011;29884;47.450;19.124;2022-12-18T09:43:18;48.33;;;21.58;;
44214;SDS011;29884;47.450;19.124;2022-12-18T09:45:59;44.72;;;21.05;;
44214;SDS011;29884;47.450;19.124;2022-12-18T09:48:32;48.00;;;21.83;;
44214;SDS011;29884;47.450;19.124;2022-12-18T09:51:09;49.22;;;21.05;;
44214;SDS011;29884;47.450;19.124;2022-12-18T09:53:47;43.28;;;19.67;;
44214;SDS011;29884;47.450;19.124;2022-12-18T09:56:20;43.05;;;21.05;;
44214;SDS011;29884;47.450;19.124;2022-12-18T09:59:15;44.78;;;20.60;;
44214;SDS011;29884;47.450;19.124;2022-12-18T10:02:00;46.08;;;20.35;;
44214;SDS011;29884;47.450;19.124;2022-12-18T10:04:41;43.58;;;19.38;;
44214;SDS011;29884;47.450;19.124;2022-12-18T10:09:56;43.42;;;19.65;;
44214;SDS011;29884;47.450;19.124;2022-12-18T10:12:55;50.13;;;20.80;;
44214;SDS011;29884;47.450;19.124;2022-12-18T10:20:46;45.10;;;19.58;;
44214;SDS011;29884;47.450;19.124;2022-12-18T10:23:20;43.10;;;19.77;;
44214;SDS011;29884;47.450;19.124;2022-12-18T10:28:31;43.08;;;19.23;;
44214;SDS011;29884;47.450;19.124;2022-12-18T10:31:01;40.53;;;18.85;;
44214;SDS011;29884;47.450;19.124;2022-12-18T10:33:30;41.60;;;19.88;;
44214;SDS011;29884;47.450;19.124;2022-12-18T10:35:57;40.30;;;19.58;;
44214;SDS011;29884;47.450;19.124;2022-12-18T10:38:26;44.22;;;18.98;;
44214;SDS011;29884;47.450;19.124;2022-12-18T10:40:58;43.65;;;19.63;;
44214;SDS011;29884;47.450;19.124;2022-12-18T10:43:31;42.72;;;19.67;;
44214;SDS011;29884;47.450;19.124;2022-12-18T10:48:26;41.22;;;18.83;;
44214;SDS011;29884;47.450;19.124;2022-12-18T10:50:52;42.10;;;19.42;;
44214;SDS011;29884;47.450;19.124;2022-12-18T10:53:19;40.08;;;18.75;;
44214;SDS011;29884;47.450;19.124;2022-12-18T10:55:50;35.80;;;17.83;;
44214;SDS011;29884;47.450;19.124;2022-12-18T10:58:26;38.90;;;17.08;;
44214;SDS011;29884;47.450;19.124;2022-12-18T11:08:34;36.85;;;15.75;;
44214;SDS011;29884;47.450;19.124;2022-12-18T11:10:59;36.05;;;15.80;;
44214;SDS011;29884;47.450;19.124;2022-12-18T11:13:26;34.88;;;16.13;;
44214;SDS011;29884;47.450;19.124;2022-12-18T11:15:55;36.47;;;15.93;;
44214;SDS011;29884;47.450;19.124;2022-12-18T11:20:59;36.28;;;15.98;;
44214;SDS011;29884;47.450;19.124;2022-12-18T11:23:34;35.92;;;15.80;;
44214;SDS011;29884;47.450;19.124;2022-12-18T11:26:02;37.33;;;16.98;;
44214;SDS011;29884;47.450;19.124;2022-12-18T11:28:37;32.30;;;14.90;;
44214;SDS011;29884;47.450;19.124;2022-12-18T11:33:37;31.55;;;14.38;;
44214;SDS011;29884;47.450;19.124;2022-12-18T11:36:06;30.30;;;14.15;;
44214;SDS011;29884;47.450;19.124;2022-12-18T11:38:35;33.45;;;14.07;;
44214;SDS011;29884;47.450;19.124;2022-12-18T11:41:07;33.50;;;14.60;;
44214;SDS011;29884;47.450;19.124;2022-12-18T11:43:45;29.98;;;14.50;;
44214;SDS011;29884;47.450;19.124;2022-12-18T11:46:24;33.03;;;14.98;;
44214;SDS011;29884;47.450;19.124;2022-12-18T11:51:37;37.90;;;17.38;;
44214;SDS011;29884;47.450;19.124;2022-12-18T11:54:12;35.47;;;16.05;;
44214;SDS011;29884;47.450;19.124;2022-12-18T11:57:26;38.03;;;17.30;;
44214;SDS011;29884;47.450;19.124;2022-12-18T12:08:09;36.83;;;16.85;;
44214;SDS011;29884;47.450;19.124;2022-12-18T12:27:25;37.47;;;18.17;;
44214;SDS011;29884;47.450;19.124;2022-12-18T12:38:46;41.97;;;19.65;;
44214;SDS011;29884;47.450;19.124;2022-12-18T12:41:19;46.95;;;20.17;;
44214;SDS011;29884;47.450;19.124;2022-12-18T12:44:07;45.40;;;20.23;;
44214;SDS011;29884;47.450;19.124;2022-12-18T12:46:39;47.70;;;21.92;;
44214;SDS011;29884;47.450;19.124;2022-12-18T12:49:09;45.38;;;21.60;;
44214;SDS011;29884;47.450;19.124;2022-12-18T12:51:45;49.22;;;22.25;;
44214;SDS011;29884;47.450;19.124;2022-12-18T12:54:21;47.60;;;22.75;;
44214;SDS011;29884;47.450;19.124;2022-12-18T12:57:12;51.40;;;23.52;;
44214;SDS011;29884;47.450;19.124;2022-12-18T13:00:05;43.33;;;20.67;;
44214;SDS011;29884;47.450;19.124;2022-12-18T13:02:56;48.72;;;21.50;;
44214;SDS011;29884;47.450;19.124;2022-12-18T13:07:58;42.75;;;21.75;;
44214;SDS011;29884;47.450;19.124;2022-12-18T13:10:47;50.20;;;22.92;;
44214;SDS011;29884;47.450;19.124;2022-12-18T13:13:15;51.97;;;23.45;;
44214;SDS011;29884;47.450;19.124;2022-12-18T13:15:48;47.13;;;23.33;;
44214;SDS011;29884;47.450;19.124;2022-12-18T13:18:30;49.50;;;23.67;;
44214;SDS011;29884;47.450;19.124;2022-12-18T13:25:51;44.72;;;21.35;;
44214;SDS011;29884;47.450;19.124;2022-12-18T13:36:50;41.22;;;19.92;;
44214;SDS011;29884;47.450;19.124;2022-12-18T13:41:43;44.20;;;21.33;;
44214;SDS011;29884;47.450;19.124;2022-12-18T13:44:19;44.85;;;22.25;;
44214;SDS011;29884;47.450;19.124;2022-12-18T13:47:02;38.55;;;19.55;;
44214;SDS011;29884;47.450;19.124;2022-12-18T13:52:00;43.25;;;21.02;;
44214;SDS011;29884;47.450;19.124;2022-12-18T13:54:33;39.53;;;18.58;;
44214;SDS011;29884;47.450;19.124;2022-12-18T13:59:54;35.97;;;16.83;;
44214;SDS011;29884;47.450;19.124;2022-12-18T14:02:22;39.75;;;18.38;;
44214;SDS011;29884;47.450;19.124;2022-12-18T14:04:49;43.72;;;19.15;;
44214;SDS011;29884;47.450;19.124;2022-12-18T14:10:11;46.38;;;21.02;;
44214;SDS011;29884;47.450;19.124;2022-12-18T14:12:40;50.17;;;23.27;;
44214;SDS011;29884;47.450;19.124;2022-12-18T14:15:34;51.35;;;23.05;;
44214;SDS011;29884;47.450;19.124;2022-12-18T14:20:48;44.45;;;22.92;;
44214;SDS011;29884;47.450;19.124;2022-12-18T14:23:29;46.67;;;22.83;;
44214;SDS011;29884;47.450;19.124;2022-12-18T14:25:55;48.25;;;23.08;;
44214;SDS011;29884;47.450;19.124;2022-12-18T14:28:20;48.60;;;21.75;;
44214;SDS011;29884;47.450;19.124;2022-12-18T14:30:49;42.45;;;20.02;;
44214;SDS011;29884;47.450;19.124;2022-12-18T14:33:16;41.97;;;21.15;;
44214;SDS011;29884;47.450;19.124;2022-12-18T14:36:04;41.55;;;20.67;;
44214;SDS011;29884;47.450;19.124;2022-12-18T14:38:35;43.25;;;21.08;;
44214;SDS011;29884;47.450;19.124;2022-12-18T14:43:34;44.90;;;19.80;;
44214;SDS011;29884;47.450;19.124;2022-12-18T14:46:02;43.25;;;20.60;;
44214;SDS011;29884;47.450;19.124;2022-12-18T14:48:35;44.50;;;21.08;;
44214;SDS011;29884;47.450;19.124;2022-12-18T14:51:05;50.67;;;22.17;;
44214;SDS011;29884;47.450;19.124;2022-12-18T14:53:42;50.38;;;22.40;;
44214;SDS011;29884;47.450;19.124;2022-12-18T14:56:30;48.28;;;23.23;;
44214;SDS011;29884;47.450;19.124;2022-12-18T14:58:59;50.05;;;22.58;;
44214;SDS011;29884;47.450;19.124;2022-12-18T15:01:37;47.22;;;22.63;;
44214;SDS011;29884;47.450;19.124;2022-12-18T15:07:07;48.03;;;21.85;;
44214;SDS011;29884;47.450;19.124;2022-12-18T15:12:45;44.70;;;21.17;;
44214;SDS011;29884;47.450;19.124;2022-12-18T15:15:41;45.08;;;21.65;;
44214;SDS011;29884;47.450;19.124;2022-12-18T15:18:11;45.67;;;21.40;;
44214;SDS011;29884;47.450;19.124;2022-12-18T15:26:02;50.63;;;22.55;;
44214;SDS011;29884;47.450;19.124;2022-12-18T15:33:38;55.85;;;26.88;;
44214;SDS011;29884;47.450;19.124;2022-12-18T15:36:07;51.13;;;25.30;;
44214;SDS011;29884;47.450;19.124;2022-12-18T15:38:35;58.38;;;27.08;;
44214;SDS011;29884;47.450;19.124;2022-12-18T15:41:01;60.10;;;28.85;;
44214;SDS011;29884;47.450;19.124;2022-12-18T15:43:30;55.70;;;27.05;;
44214;SDS011;29884;47.450;19.124;2022-12-18T15:46:00;60.45;;;25.67;;
44214;SDS011;29884;47.450;19.124;2022-12-18T15:48:26;62.78;;;29.95;;
44214;SDS011;29884;47.450;19.124;2022-12-18T15:50:52;63.00;;;30.55;;
44214;SDS011;29884;47.450;19.124;2022-12-18T15:53:21;60.60;;;28.98;;
44214;SDS011;29884;47.450;19.124;2022-12-18T15:55:48;63.05;;;28.67;;
44214;SDS011;29884;47.450;19.124;2022-12-18T15:58:32;63.10;;;28.48;;
44214;SDS011;29884;47.450;19.124;2022-12-18T16:00:58;60.75;;;28.63;;
44214;SDS011;29884;47.450;19.124;2022-12-18T16:03:25;62.05;;;28.65;;
44214;SDS011;29884;47.450;19.124;2022-12-18T16:05:51;60.65;;;29.75;;
44214;SDS011;29884;47.450;19.124;2022-12-18T16:08:16;62.10;;;29.50;;
44214;SDS011;29884;47.450;19.124;2022-12-18T16:10:42;60.63;;;29.25;;
44214;SDS011;29884;47.450;19.124;2022-12-18T16:13:09;64.78;;;30.92;;
44214;SDS011;29884;47.450;19.124;2022-12-18T16:15:36;67.20;;;31.77;;
44214;SDS011;29884;47.450;19.124;2022-12-18T16:18:02;71.38;;;31.58;;
44214;SDS011;29884;47.450;19.124;2022-12-18T16:20:28;66.70;;;31.95;;
44214;SDS011;29884;47.450;19.124;2022-12-18T16:22:53;70.45;;;32.20;;
44214;SDS011;29884;47.450;19.124;2022-12-18T16:25:26;62.30;;;31.08;;
44214;SDS011;29884;47.450;19.124;2022-12-18T16:27:53;69.45;;;31.75;;
44214;SDS011;29884;47.450;19.124;2022-12-18T16:30:26;63.15;;;31.38;;
44214;SDS011;29884;47.450;19.124;2022-12-18T16:32:55;65.90;;;31.58;;
44214;SDS011;29884;47.450;19.124;2022-12-18T16:35:22;67.28;;;31.40;;
44214;SDS011;29884;47.450;19.124;2022-12-18T16:37:50;62.80;;;30.42;;